createdAt,value
2019-02-26T00:00:49.625Z,4.73
2019-02-26T00:03:19.385Z,4.43
2019-02-26T00:05:43.010Z,4.83
2019-02-26T00:08:08.840Z,5.90
2019-02-26T00:10:37.124Z,4.73
2019-02-26T00:13:02.501Z,4.37
2019-02-26T00:15:31.315Z,4.97
2019-02-26T00:17:56.100Z,4.17
2019-02-26T00:20:21.934Z,4.57
2019-02-26T00:22:47.772Z,5.93
2019-02-26T00:25:15.481Z,6.17
2019-02-26T00:27:41.358Z,10.17
2019-02-26T00:30:48.850Z,8.10
2019-02-26T00:33:14.690Z,8.23
2019-02-26T00:35:41.620Z,6.77
2019-02-26T00:38:08.965Z,7.10
2019-02-26T00:40:37.139Z,6.20
2019-02-26T00:43:04.771Z,8.10
2019-02-26T00:45:32.327Z,6.23
2019-02-26T00:47:59.140Z,7.80
2019-02-26T00:50:24.971Z,8.93
2019-02-26T00:52:52.329Z,7.20
2019-02-26T00:55:18.579Z,9.00
2019-02-26T00:57:44.438Z,9.50
2019-02-26T01:00:30.854Z,7.00
2019-02-26T01:02:57.886Z,8.10
2019-02-26T01:05:23.728Z,7.47
2019-02-26T01:07:52.110Z,7.77
2019-02-26T01:10:20.618Z,8.00
2019-02-26T01:12:45.033Z,7.40
2019-02-26T01:15:52.507Z,5.50
2019-02-26T01:18:20.117Z,9.13
2019-02-26T01:20:48.334Z,13.73
2019-02-26T01:23:13.820Z,10.23
2019-02-26T01:25:39.640Z,7.73
2019-02-26T01:28:05.490Z,7.27
2019-02-26T01:30:33.724Z,6.47
2019-02-26T01:33:00.567Z,6.40
2019-02-26T01:35:28.855Z,6.40
2019-02-26T01:37:55.771Z,7.00
2019-02-26T01:40:25.230Z,7.10
2019-02-26T01:42:52.273Z,6.53
2019-02-26T01:45:19.510Z,7.00
2019-02-26T01:47:48.263Z,5.73
2019-02-26T01:50:15.743Z,6.73
2019-02-26T01:52:41.113Z,7.33
2019-02-26T01:55:50.455Z,7.50
2019-02-26T01:58:16.765Z,7.30
2019-02-26T02:00:44.078Z,7.20
2019-02-26T02:03:09.918Z,6.33
2019-02-26T02:05:35.727Z,5.90
2019-02-26T02:08:01.550Z,6.50
2019-02-26T02:10:27.357Z,7.03
2019-02-26T02:12:55.186Z,7.60
2019-02-26T02:15:42.250Z,7.30
2019-02-26T02:18:08.650Z,7.30
2019-02-26T02:20:34.461Z,7.10
2019-02-26T02:23:00.913Z,7.03
2019-02-26T02:25:31.065Z,7.57
2019-02-26T02:27:57.498Z,7.10
2019-02-26T02:30:30.278Z,7.00
2019-02-26T02:32:54.354Z,6.20
2019-02-26T02:35:19.616Z,7.60
2019-02-26T02:37:46.623Z,6.97
2019-02-26T02:43:07.966Z,6.10
2019-02-26T02:45:34.545Z,6.70
2019-02-26T02:48:02.923Z,6.67
2019-02-26T02:50:28.098Z,6.63
2019-02-26T02:52:56.096Z,6.70
2019-02-26T02:55:21.651Z,6.60
2019-02-26T02:57:51.885Z,7.97
2019-02-26T03:02:53.773Z,6.80
2019-02-26T03:05:20.164Z,5.40
2019-02-26T03:07:50.433Z,5.67
2019-02-26T03:10:13.912Z,6.37
2019-02-26T03:12:39.901Z,6.33
2019-02-26T03:15:48.382Z,6.77
2019-02-26T03:18:16.916Z,6.37
2019-02-26T03:20:42.842Z,6.53
2019-02-26T03:23:11.420Z,8.50
2019-02-26T03:25:36.408Z,5.80
2019-02-26T03:28:02.237Z,6.27
2019-02-26T03:30:36.924Z,5.70
2019-02-26T03:33:00.317Z,6.60
2019-02-26T03:35:23.897Z,6.30
2019-02-26T03:37:54.136Z,7.17
2019-02-26T03:40:20.809Z,7.73
2019-02-26T03:42:46.749Z,7.53
2019-02-26T03:45:54.232Z,7.30
2019-02-26T03:48:20.564Z,8.03
2019-02-26T03:50:47.771Z,7.50
2019-02-26T03:53:13.599Z,8.70
2019-02-26T03:55:41.433Z,8.27
2019-02-26T03:58:07.168Z,9.97
2019-02-26T04:00:34.730Z,6.73
2019-02-26T04:03:00.714Z,8.33
2019-02-26T04:05:26.552Z,7.70
2019-02-26T04:07:55.596Z,7.23
2019-02-26T04:10:20.315Z,8.20
2019-02-26T04:12:48.735Z,7.30
2019-02-26T04:15:36.342Z,9.00
2019-02-26T04:18:01.550Z,7.27
2019-02-26T04:20:27.957Z,8.30
2019-02-26T04:22:56.843Z,9.00
2019-02-26T04:26:02.551Z,7.50
2019-02-26T04:29:10.064Z,7.03
2019-02-26T04:32:18.953Z,7.03
2019-02-26T04:34:51.233Z,7.93
2019-02-26T04:37:30.705Z,7.00
2019-02-26T04:40:12.047Z,6.40
2019-02-26T04:42:50.116Z,7.37
2019-02-26T04:45:36.151Z,7.63
2019-02-26T04:48:06.086Z,8.10
2019-02-26T04:50:35.062Z,7.40
2019-02-26T04:53:02.029Z,8.00
2019-02-26T04:55:29.714Z,7.17
2019-02-26T04:57:56.299Z,6.80
2019-02-26T05:00:23.607Z,6.57
2019-02-26T05:02:50.042Z,11.77
2019-02-26T05:05:15.916Z,12.77
2019-02-26T05:07:44.488Z,8.73
2019-02-26T05:10:09.674Z,17.60
2019-02-26T05:12:37.950Z,11.00
2019-02-26T05:15:04.921Z,13.30
2019-02-26T05:17:33.263Z,8.40
2019-02-26T05:19:58.631Z,7.80
2019-02-26T05:22:27.256Z,8.20
2019-02-26T05:24:52.881Z,8.53
2019-02-26T05:27:22.165Z,8.40
2019-02-26T05:29:48.956Z,7.70
2019-02-26T05:32:14.392Z,10.40
2019-02-26T05:34:42.780Z,14.30
2019-02-26T05:37:11.002Z,12.30
2019-02-26T05:39:35.879Z,8.27
2019-02-26T05:42:03.948Z,9.13
2019-02-26T05:44:29.522Z,8.07
2019-02-26T05:46:56.799Z,8.60
2019-02-26T05:49:23.165Z,8.47
2019-02-26T05:51:49.047Z,7.17
2019-02-26T05:54:18.028Z,9.90
2019-02-26T05:56:43.585Z,7.60
2019-02-26T05:59:13.312Z,8.73
2019-02-26T06:01:38.682Z,10.43
2019-02-26T06:04:06.774Z,9.80
2019-02-26T06:06:32.283Z,11.87
2019-02-26T06:08:59.989Z,12.20
2019-02-26T06:11:28.366Z,11.10
2019-02-26T06:13:56.311Z,11.17
2019-02-26T06:16:22.529Z,14.80
2019-02-26T06:18:51.905Z,11.80
2019-02-26T06:21:18.981Z,9.67
2019-02-26T06:24:27.179Z,8.40
2019-02-26T06:26:54.268Z,7.57
2019-02-26T06:29:24.432Z,8.77
2019-02-26T06:31:49.424Z,10.07
2019-02-26T06:34:16.325Z,9.07
2019-02-26T06:36:44.322Z,9.63
2019-02-26T06:39:11.027Z,9.60
2019-02-26T06:41:39.593Z,9.07
2019-02-26T06:44:04.575Z,8.77
2019-02-26T06:46:31.916Z,8.97
2019-02-26T06:48:58.170Z,9.10
2019-02-26T06:51:26.023Z,8.77
2019-02-26T06:53:54.101Z,8.53
2019-02-26T06:56:19.445Z,9.83
2019-02-26T07:01:40.105Z,9.87
2019-02-26T07:04:07.030Z,8.70
2019-02-26T07:06:34.834Z,9.83
2019-02-26T07:09:00.561Z,10.63
2019-02-26T07:11:28.025Z,12.17
2019-02-26T07:13:54.113Z,9.97
2019-02-26T07:16:20.699Z,9.87
2019-02-26T07:18:47.676Z,12.20
2019-02-26T07:21:13.520Z,12.23
2019-02-26T07:23:40.049Z,12.27
2019-02-26T07:26:07.069Z,13.50
2019-02-26T07:28:32.998Z,13.47
2019-02-26T07:31:00.438Z,13.33
2019-02-26T07:33:27.403Z,14.13
2019-02-26T07:35:56.577Z,13.83
2019-02-26T07:38:23.101Z,12.90
2019-02-26T07:40:49.806Z,13.00
2019-02-26T07:43:17.902Z,13.07
2019-02-26T07:45:43.360Z,13.40
2019-02-26T07:48:09.271Z,14.00
2019-02-26T07:50:39.714Z,14.57
2019-02-26T07:53:02.850Z,14.10
2019-02-26T07:55:48.559Z,11.67
2019-02-26T07:58:15.582Z,11.60
2019-02-26T08:00:45.310Z,12.93
2019-02-26T08:03:09.870Z,11.50
2019-02-26T08:05:35.688Z,11.53
2019-02-26T08:08:01.498Z,11.50
2019-02-26T08:10:27.329Z,11.00
2019-02-26T08:12:53.176Z,10.80
2019-02-26T08:16:02.469Z,10.43
2019-02-26T08:18:28.366Z,12.17
2019-02-26T08:20:56.799Z,9.97
2019-02-26T08:23:23.700Z,8.50
2019-02-26T08:25:52.015Z,10.23
2019-02-26T08:28:18.539Z,11.93
2019-02-26T08:30:47.471Z,9.97
2019-02-26T08:33:12.882Z,10.20
2019-02-26T08:35:38.764Z,10.70
2019-02-26T08:40:38.419Z,12.87
2019-02-26T08:43:04.276Z,13.13
2019-02-26T08:45:50.164Z,10.47
2019-02-26T08:48:35.906Z,12.30
2019-02-26T08:51:05.356Z,12.70
2019-02-26T08:53:31.478Z,12.10
2019-02-26T08:55:58.890Z,12.13
2019-02-26T08:58:25.743Z,15.40
2019-02-26T09:00:52.697Z,12.63
2019-02-26T09:03:20.413Z,13.07
2019-02-26T09:05:46.268Z,12.83
2019-02-26T09:08:14.017Z,11.80
2019-02-26T09:10:41.350Z,12.17
2019-02-26T09:13:09.358Z,12.70
2019-02-26T09:15:56.444Z,12.20
2019-02-26T09:18:27.473Z,11.70
2019-02-26T09:20:50.736Z,12.90
2019-02-26T09:23:20.876Z,11.73
2019-02-26T09:25:48.581Z,11.23
2019-02-26T09:28:12.073Z,11.00
2019-02-26T09:30:39.014Z,11.20
2019-02-26T09:33:06.380Z,10.93
2019-02-26T09:35:33.633Z,10.43
2019-02-26T09:38:00.973Z,10.80
2019-02-26T09:40:29.242Z,11.20
2019-02-26T09:42:58.128Z,10.20
2019-02-26T09:45:43.569Z,10.03
2019-02-26T09:48:12.280Z,10.00
2019-02-26T09:50:38.578Z,9.63
2019-02-26T09:53:25.995Z,10.97
2019-02-26T09:55:51.974Z,10.30
2019-02-26T09:58:20.058Z,11.10
2019-02-26T10:01:06.822Z,10.90
2019-02-26T10:03:38.556Z,10.77
2019-02-26T10:06:01.249Z,10.67
2019-02-26T10:08:28.145Z,11.97
2019-02-26T10:10:56.931Z,10.23
2019-02-26T10:13:24.988Z,9.00
2019-02-26T10:15:50.538Z,10.20
2019-02-26T10:18:16.371Z,9.47
2019-02-26T10:20:43.322Z,11.23
2019-02-26T10:23:09.994Z,9.77
2019-02-26T10:25:38.673Z,9.37
2019-02-26T10:28:08.824Z,8.53
2019-02-26T10:30:33.933Z,7.27
2019-02-26T10:33:02.739Z,7.60
2019-02-26T10:35:33.371Z,9.70
2019-02-26T10:37:59.715Z,8.00
2019-02-26T10:40:34.232Z,12.10
2019-02-26T10:42:52.950Z,10.80
2019-02-26T10:45:30.651Z,10.53
2019-02-26T10:47:58.730Z,10.13
2019-02-26T10:50:31.047Z,9.47
2019-02-26T10:52:57.777Z,8.10
2019-02-26T10:55:24.277Z,7.07
2019-02-26T10:57:49.238Z,7.60
2019-02-26T11:00:18.607Z,7.70
2019-02-26T11:02:46.155Z,8.17
2019-02-26T11:05:14.295Z,7.23
2019-02-26T11:07:40.220Z,7.33
2019-02-26T11:10:08.205Z,6.60
2019-02-26T11:12:34.131Z,7.10
2019-02-26T11:15:01.619Z,7.17
2019-02-26T11:17:28.935Z,6.17
2019-02-26T11:19:58.051Z,5.90
2019-02-26T11:22:25.180Z,4.57
2019-02-26T11:24:53.302Z,3.43
2019-02-26T11:27:18.727Z,5.37
2019-02-26T11:29:44.619Z,4.97
2019-02-26T11:32:12.949Z,4.13
2019-02-26T11:34:38.437Z,4.30
2019-02-26T11:37:08.661Z,3.60
2019-02-26T11:39:32.099Z,2.97
2019-02-26T11:41:59.510Z,3.30
2019-02-26T11:44:27.625Z,3.90
2019-02-26T11:46:54.382Z,3.80
2019-02-26T11:49:21.819Z,3.17
2019-02-26T11:51:47.846Z,3.23
2019-02-26T11:54:15.045Z,2.50
2019-02-26T11:56:44.097Z,2.70
2019-02-26T11:59:11.725Z,2.50
2019-02-26T12:01:39.432Z,2.53
2019-02-26T12:04:06.042Z,2.43
2019-02-26T12:06:32.750Z,2.70
2019-02-26T12:08:58.627Z,2.87
2019-02-26T12:11:24.477Z,2.97
2019-02-26T12:13:53.039Z,2.37
2019-02-26T12:16:18.090Z,2.17
2019-02-26T12:18:45.005Z,2.20
2019-02-26T12:21:12.916Z,2.03
2019-02-26T12:23:39.728Z,2.00
2019-02-26T12:26:06.886Z,2.07
2019-02-26T12:28:37.183Z,1.97
2019-02-26T12:31:01.261Z,2.07
2019-02-26T12:33:32.206Z,2.10
2019-02-26T12:35:58.983Z,1.63
2019-02-26T12:38:23.831Z,1.93
2019-02-26T12:40:50.759Z,3.13
2019-02-26T12:43:19.160Z,2.20
2019-02-26T12:45:45.377Z,2.73
2019-02-26T12:48:14.229Z,2.70
2019-02-26T12:50:40.406Z,2.30
2019-02-26T12:53:09.526Z,2.70
2019-02-26T12:55:35.893Z,2.47
2019-02-26T12:58:02.282Z,2.50
2019-02-26T13:00:28.137Z,2.33
2019-02-26T13:02:54.036Z,1.73
2019-02-26T13:05:22.943Z,2.07
2019-02-26T13:07:47.859Z,2.37
2019-02-26T13:10:22.298Z,2.80
2019-02-26T13:12:52.725Z,2.57
2019-02-26T13:15:19.303Z,2.80
2019-02-26T13:17:48.883Z,2.70
2019-02-26T13:20:22.819Z,3.60
2019-02-26T13:22:48.802Z,2.63
2019-02-26T13:27:45.292Z,3.10
2019-02-26T13:30:13.529Z,2.53
2019-02-26T13:32:55.353Z,3.13
2019-02-26T13:35:09.211Z,2.63
2019-02-26T13:37:36.589Z,2.10
2019-02-26T13:40:09.413Z,2.20
2019-02-26T13:42:37.316Z,2.40
2019-02-26T13:45:06.890Z,2.00
2019-02-26T13:47:32.873Z,2.57
2019-02-26T13:49:58.743Z,2.30
2019-02-26T13:52:24.628Z,2.10
2019-02-26T13:54:50.633Z,1.83
2019-02-26T13:57:16.554Z,2.23
2019-02-26T13:59:42.390Z,2.00
2019-02-26T14:02:08.225Z,2.00
2019-02-26T14:04:34.145Z,1.63
2019-02-26T14:06:59.993Z,2.07
2019-02-26T14:09:25.878Z,1.90
2019-02-26T14:11:51.828Z,2.10
2019-02-26T14:14:17.684Z,1.87
2019-02-26T14:16:43.778Z,1.83
2019-02-26T14:19:09.641Z,1.70
2019-02-26T14:21:35.489Z,2.00
2019-02-26T14:24:01.357Z,2.23
2019-02-26T14:26:42.167Z,2.43
2019-02-26T14:29:08.265Z,1.80
2019-02-26T14:31:37.077Z,1.63
2019-02-26T14:34:13.035Z,2.17
2019-02-26T14:36:39.246Z,2.00
2019-02-26T14:39:06.713Z,2.07
2019-02-26T14:41:40.798Z,1.63
2019-02-26T14:44:07.218Z,2.87
2019-02-26T14:46:33.576Z,2.20
2019-02-26T14:49:00.111Z,2.03
2019-02-26T14:51:28.350Z,1.93
2019-02-26T14:53:54.609Z,2.33
2019-02-26T14:56:20.526Z,2.50
2019-02-26T14:58:48.279Z,2.33
2019-02-26T15:01:14.316Z,2.20
2019-02-26T15:03:44.746Z,2.17
2019-02-26T15:06:19.820Z,2.90
2019-02-26T15:08:46.091Z,2.73
2019-02-26T15:11:12.171Z,2.80
2019-02-26T15:13:38.545Z,2.00
2019-02-26T15:16:04.389Z,2.23
2019-02-26T15:18:31.102Z,2.30
2019-02-26T15:20:57.052Z,2.17
2019-02-26T15:23:22.958Z,2.60
2019-02-26T15:25:48.827Z,2.20
2019-02-26T15:28:14.687Z,2.07
2019-02-26T15:30:40.681Z,2.30
2019-02-26T15:33:11.171Z,2.33
2019-02-26T15:35:34.532Z,1.90
2019-02-26T15:38:00.452Z,2.30
2019-02-26T15:40:26.338Z,3.10
2019-02-26T15:42:54.388Z,1.97
2019-02-26T15:45:23.945Z,1.67
2019-02-26T15:47:50.496Z,2.50
2019-02-26T15:50:17.784Z,2.03
2019-02-26T15:52:43.782Z,2.10
2019-02-26T15:55:17.917Z,2.40
2019-02-26T15:57:43.813Z,2.50
2019-02-26T16:00:15.950Z,2.33
2019-02-26T16:02:43.748Z,2.70
2019-02-26T16:05:10.181Z,2.70
2019-02-26T16:07:36.154Z,2.80
2019-02-26T16:10:02.514Z,2.10
2019-02-26T16:12:28.450Z,2.67
2019-02-26T16:14:54.351Z,2.67
2019-02-26T16:17:20.197Z,2.43
2019-02-26T16:19:46.120Z,1.90
2019-02-26T16:22:11.988Z,2.30
2019-02-26T16:24:37.896Z,2.17
2019-02-26T16:27:04.029Z,2.53
2019-02-26T16:29:30.197Z,2.20
2019-02-26T16:31:57.305Z,2.77
2019-02-26T16:34:23.566Z,2.57
2019-02-26T16:36:49.459Z,3.30
2019-02-26T16:42:17.147Z,3.43
2019-02-26T16:44:46.888Z,3.70
2019-02-26T16:47:15.421Z,3.40
2019-02-26T16:49:51.713Z,3.30
2019-02-26T16:52:18.588Z,3.50
2019-02-26T16:54:46.563Z,4.10
2019-02-26T16:57:30.942Z,3.77
2019-02-26T16:59:56.999Z,3.83
2019-02-26T17:02:27.208Z,4.27
2019-02-26T17:04:51.664Z,3.57
2019-02-26T17:07:20.219Z,4.03
2019-02-26T17:09:46.711Z,4.97
2019-02-26T17:12:13.084Z,4.00
2019-02-26T17:14:39.616Z,4.27
2019-02-26T17:17:06.014Z,5.60
2019-02-26T17:19:31.974Z,5.70
2019-02-26T17:22:01.800Z,24.97
2019-02-26T17:24:29.561Z,27.47
2019-02-26T17:26:55.588Z,26.53
2019-02-26T17:29:22.185Z,19.17
2019-02-26T17:31:48.183Z,18.77
2019-02-26T17:34:14.235Z,17.50
2019-02-26T17:36:40.072Z,14.60
2019-02-26T17:46:38.221Z,13.60
2019-02-26T17:47:41.348Z,9.83
2019-02-26T17:50:28.650Z,9.77
2019-02-26T17:53:17.380Z,10.20
2019-02-26T17:55:34.858Z,11.17
2019-02-26T17:58:04.325Z,9.83
2019-02-26T18:00:33.875Z,8.20
2019-02-26T18:03:15.450Z,8.30
2019-02-26T18:11:24.392Z,13.13
2019-02-26T18:14:00.208Z,9.87
2019-02-26T18:16:26.622Z,11.03
2019-02-26T18:18:52.498Z,9.57
2019-02-26T18:21:18.524Z,10.83
2019-02-26T18:23:44.425Z,10.40
2019-02-26T18:26:10.305Z,9.67
2019-02-26T18:28:36.879Z,6.70
2019-02-26T18:31:02.929Z,7.33
2019-02-26T18:33:28.807Z,9.03
2019-02-26T18:35:54.647Z,8.00
2019-02-26T18:38:20.508Z,8.57
2019-02-26T18:40:46.596Z,29.60
2019-02-26T18:43:14.427Z,20.80
2019-02-26T18:45:43.847Z,29.87
2019-02-26T18:48:09.759Z,19.00
2019-02-26T18:50:35.714Z,23.50
2019-02-26T18:53:01.630Z,23.87
2019-02-26T18:55:30.232Z,20.83
2019-02-26T18:57:55.503Z,27.43
2019-02-26T19:00:25.894Z,26.90
2019-02-26T19:02:51.617Z,16.50
2019-02-26T19:05:21.113Z,14.13
2019-02-26T19:07:48.393Z,11.20
2019-02-26T19:10:19.404Z,11.70
2019-02-26T19:12:44.001Z,16.70
2019-02-26T19:15:20.449Z,17.00
2019-02-26T19:17:49.145Z,22.00
2019-02-26T19:20:26.741Z,24.07
2019-02-26T19:22:52.763Z,19.30
2019-02-26T19:25:21.809Z,13.77
2019-02-26T19:27:53.179Z,13.50
2019-02-26T19:30:22.099Z,16.43
2019-02-26T19:32:52.016Z,13.20
2019-02-26T19:35:19.831Z,14.50
2019-02-26T19:37:52.736Z,12.07
2019-02-26T19:40:25.413Z,12.50
2019-02-26T19:42:52.892Z,10.37
2019-02-26T19:45:19.182Z,9.47
2019-02-26T19:47:49.219Z,10.30
2019-02-26T19:50:15.888Z,12.40
2019-02-26T19:52:42.066Z,8.93
2019-02-26T19:55:12.877Z,12.10
2019-02-26T19:57:46.566Z,10.43
2019-02-26T20:00:14.185Z,10.53
2019-02-26T20:02:43.628Z,7.97
2019-02-26T20:05:13.901Z,9.73
2019-02-26T20:07:40.626Z,14.70
2019-02-26T20:10:15.769Z,19.17
2019-02-26T20:12:44.670Z,19.80
2019-02-26T20:15:13.333Z,18.37
2019-02-26T20:17:39.886Z,19.50
2019-02-26T20:20:12.276Z,15.67
2019-02-26T20:22:38.789Z,11.20
2019-02-26T20:25:08.215Z,11.90
2019-02-26T20:27:36.048Z,9.40
2019-02-26T20:30:05.349Z,11.40
2019-02-26T20:32:31.658Z,12.00
2019-02-26T20:34:57.933Z,9.57
2019-02-26T20:37:26.341Z,9.87
2019-02-26T20:39:53.094Z,8.40
2019-02-26T20:42:19.103Z,8.57
2019-02-26T20:44:45.472Z,7.90
2019-02-26T20:47:11.398Z,8.60
2019-02-26T20:49:37.275Z,9.03
2019-02-26T20:52:03.181Z,12.87
2019-02-26T20:54:29.127Z,12.40
2019-02-26T21:08:30.731Z,20.13
2019-02-26T21:14:21.149Z,13.70
2019-02-26T21:17:20.792Z,15.00
2019-02-26T21:31:19.630Z,16.83
2019-02-26T21:44:28.464Z,19.57
2019-02-26T21:46:56.188Z,19.77
2019-02-26T21:49:22.214Z,21.50
2019-02-26T21:51:48.087Z,20.03
2019-02-26T21:54:13.965Z,19.93
2019-02-26T21:56:39.821Z,18.70
2019-02-26T21:59:05.667Z,19.30
2019-02-26T22:01:31.560Z,19.83
2019-02-26T22:03:58.465Z,19.33
2019-02-26T22:06:25.041Z,20.27
2019-02-26T22:08:50.970Z,20.53
2019-02-26T22:11:18.621Z,19.10
2019-02-26T22:13:44.575Z,19.03
2019-02-26T22:16:10.486Z,17.07
2019-02-26T22:18:36.379Z,17.83
2019-02-26T22:21:02.287Z,23.37
2019-02-26T22:23:29.382Z,20.60
2019-02-26T22:25:55.550Z,20.93
2019-02-26T22:28:23.003Z,20.40
2019-02-26T22:30:48.979Z,17.90
2019-02-26T22:33:14.878Z,18.40
2019-02-26T22:35:40.741Z,19.53
2019-02-26T22:38:06.650Z,17.23
2019-02-26T22:40:34.225Z,16.80
2019-02-26T22:43:00.204Z,15.87
2019-02-26T22:45:27.967Z,15.33
2019-02-26T22:47:53.891Z,17.07
2019-02-26T22:50:19.762Z,14.30
2019-02-26T22:52:45.657Z,13.20
2019-02-26T22:55:17.561Z,12.33
2019-02-26T22:57:43.737Z,16.60
2019-02-26T23:00:50.223Z,15.93
2019-02-26T23:03:16.131Z,13.73
2019-02-26T23:05:41.991Z,9.83
2019-02-26T23:08:09.611Z,21.80
2019-02-26T23:10:35.610Z,12.10
2019-02-26T23:13:01.449Z,9.87
2019-02-26T23:15:27.852Z,8.00
2019-02-26T23:17:58.127Z,9.00
2019-02-26T23:20:21.610Z,9.63
2019-02-26T23:23:02.845Z,9.40
2019-02-26T23:25:29.217Z,9.87
2019-02-26T23:27:55.097Z,11.17
2019-02-26T23:30:21.162Z,13.93
2019-02-26T23:32:47.014Z,11.77
2019-02-26T23:35:13.480Z,9.93
2019-02-26T23:37:39.377Z,9.40
2019-02-26T23:40:07.935Z,12.33
2019-02-26T23:42:33.809Z,12.10
2019-02-26T23:44:59.656Z,11.60
2019-02-26T23:47:51.416Z,12.50
2019-02-26T23:50:17.283Z,13.40
2019-02-26T23:52:43.140Z,12.93
2019-02-26T23:55:13.119Z,11.60
2019-02-26T23:57:37.576Z,12.80
